Share

Capo Bellavista, Italy

Capo Bellavista (LIEB) Elev 492 ft | 39.93 °N, 9.71 °E | Change Station

Current weather conditions updated 27 minutes ago

Clear
Clear
66 °F
Feels Like 66 °F
N
4
Wind Variable Wind from East
Sunrise 6:35 AM
Sunset 8:05 PM
Moon Waning Gibbous

Today is forecast to be Warmer than yesterday. Showers late tonight.

Pressure 29.65 in
Visibility -9999.0 miles
Clouds
Dew Point 55 °F
Humidity 68%
Rainfall 0.00 in
Snow Depth Not available.
UV Not available.
Pollen Not available.
Air Quality Not available.
Flu Activity Not available.
METAR LIEB 210855Z 10003KT CAVOK 19/13 Q1004 RMK SKC QUK 2 QUL 0 VIS MAR 30 KM MON LIB VIS MIN 9999

More Conditions Fewer Conditions

Pressure 29.65 in
Visibility -9999.0 miles
Clouds
Dew Point 55 °F
Humidity 68%
Rainfall 0.00 in
Snow Depth Not available.
UV Not available.
Pollen Not available.
Air Quality Not available.
Flu Activity Not available.
METAR LIEB 210855Z 10003KT CAVOK 19/13 Q1004 RMK SKC QUK 2 QUL 0 VIS MAR 30 KM MON LIB VIS MIN 9999

More Conditions Fewer Conditions

10-Day Weather Forecast

Almanac

Astronomy

Apr. 21, 2014 Rise Set
Actual Time 6:35 AM CEST 8:05 PM CEST
Civil Twilight 6:06 AM CEST 8:33 PM CEST
Nautical Twilight 5:32 AM CEST 9:08 PM CEST
Astronomical Twilight 4:56 AM CEST 9:44 PM CEST
Moon 1:21 AM CEST 11:43 AM CEST
Length of Visible Light 14h 27m
Length of Day
13h 30m
Tomorrow will be 2m 25s longer.
Waning Gibbous, 61% of the Moon is Illuminated
Today
Waning Gibbous
Apr 22
Last Quarter
Apr 29
New
May 6
First Quarter
May 14
Full

Yesterday's Extremes

Country Highs Country Lows

Community

  • Snowy Robin
    Snowy Robin
  • Sun Pillar and Geese
    Sun Pillar and Geese
  • Showers on the Way
    Showers on the Way
  • Easter Morning Fog
    Easter Morning Fog
  • Easter Dance
    Easter Dance

WunderPhotos

Upload Photos

1,703,579 photos uploaded!

WunderBlogs® & News

Nearby

Snow Depth

Not available.

Coastal Water Temperatures

Place Temperature
No Stations Reporting

Earthquake Activity

City Distance Mag. Time & Date
No recent earthquake activity has been reported nearby.
Minimum magnitude displayed is 2.5.

Nearby Weather Stations

Station Location Temp. Dew Point Humidity Wind Precip. Elev Updated Type
Tortoli 56.6 °F 45 °F 59% North  at  0.0 mph 0.00 in / hr 5 ft 8:47 AM CEST Normal

Show More Stations Show Fewer Stations

What do you think?

We're not finished. Please let us know what you like, what you don't like, and what you are still missing.